New Richmond Regional Airport New Richmond US
ICAO: KRNH
IATA: RNH
Category: Medium
Scheduled Services: No

Elevation: 998 ft
TransAlt. 18000 ft.

Airport Communications:
MINNEAPOLIS APP/DEP:121.2
AWOS 3:120
CTAF/UNICOM:122.975

KRNH Zoom In..

If you have problems with the map follow the link
https://www.worldairports.se/pages/airport.php?
ICAO=KRNH

Runways:

(A) RW 04 length 2050 ft width 75 ft
---- / hdg 42

(B) RW 14 length 5507 ft width 75 ft
---- / hdg 141

(C) RW 22 length 2050 ft width 75 ft
---- / hdg 222

(D) RW 32 length 5507 ft width 75 ft
---- / hdg 321

Location; KRNH
Day. 06 / Time. 12.15 Zulu
* Altimeter: 30.30
* Temperature: -08° c. -17.6°f.
* Wind from: 310° Speed 06 kn.
Dewpoint: -11° c.
Visibility: 10 Statute Miles.
Clouds: Broken 1700 ft.

KRNH 061215Z AUTO 31006KT 10SM BKN017 M08/M11 A3030 RMK AO2 T10821109


Wind From 310°
Speed 06 kn.

 
 
jpsmedia worldairports.se 2019   terms of use